sensor_id;sensor_type;location;lat;lon;timestamp;temperature;humidity
2024;DHT22;1016;48.770;9.154;2022-08-21T00:01:52;21.80;93.80
2024;DHT22;1016;48.770;9.154;2022-08-21T00:04:17;21.80;93.90
2024;DHT22;1016;48.770;9.154;2022-08-21T00:06:43;21.70;94.00
2024;DHT22;1016;48.770;9.154;2022-08-21T00:09:09;21.70;94.50
2024;DHT22;1016;48.770;9.154;2022-08-21T00:11:36;21.50;94.00
2024;DHT22;1016;48.770;9.154;2022-08-21T00:14:05;21.60;94.40
2024;DHT22;1016;48.770;9.154;2022-08-21T00:16:31;21.50;94.60
2024;DHT22;1016;48.770;9.154;2022-08-21T00:18:57;21.50;94.90
2024;DHT22;1016;48.770;9.154;2022-08-21T00:21:23;21.50;95.20
2024;DHT22;1016;48.770;9.154;2022-08-21T00:23:50;21.40;95.40
2024;DHT22;1016;48.770;9.154;2022-08-21T00:26:16;21.40;95.70
2024;DHT22;1016;48.770;9.154;2022-08-21T00:28:41;21.40;95.90
2024;DHT22;1016;48.770;9.154;2022-08-21T00:31:07;21.40;96.20
2024;DHT22;1016;48.770;9.154;2022-08-21T00:33:32;21.30;96.30
2024;DHT22;1016;48.770;9.154;2022-08-21T00:35:59;21.30;96.40
2024;DHT22;1016;48.770;9.154;2022-08-21T00:38:24;21.30;96.30
2024;DHT22;1016;48.770;9.154;2022-08-21T00:40:54;21.30;96.80
2024;DHT22;1016;48.770;9.154;2022-08-21T00:43:25;21.20;96.90
2024;DHT22;1016;48.770;9.154;2022-08-21T00:45:51;21.20;97.00
2024;DHT22;1016;48.770;9.154;2022-08-21T00:48:19;21.20;97.20
2024;DHT22;1016;48.770;9.154;2022-08-21T00:50:55;21.20;97.30
2024;DHT22;1016;48.770;9.154;2022-08-21T00:53:22;21.10;97.40
2024;DHT22;1016;48.770;9.154;2022-08-21T00:55:48;21.10;97.40
2024;DHT22;1016;48.770;9.154;2022-08-21T00:58:14;21.10;97.40
2024;DHT22;1016;48.770;9.154;2022-08-21T01:00:45;21.00;97.50
2024;DHT22;1016;48.770;9.154;2022-08-21T01:03:15;21.00;97.40
2024;DHT22;1016;48.770;9.154;2022-08-21T01:05:41;21.00;99.90
2024;DHT22;1016;48.770;9.154;2022-08-21T01:08:07;21.00;97.70
2024;DHT22;1016;48.770;9.154;2022-08-21T01:10:34;20.90;97.70
2024;DHT22;1016;48.770;9.154;2022-08-21T01:13:00;20.90;97.70
2024;DHT22;1016;48.770;9.154;2022-08-21T01:15:34;20.90;97.70
2024;DHT22;1016;48.770;9.154;2022-08-21T01:18:00;20.90;97.80
2024;DHT22;1016;48.770;9.154;2022-08-21T01:20:27;20.80;97.80
2024;DHT22;1016;48.770;9.154;2022-08-21T01:22:53;20.80;97.90
2024;DHT22;1016;48.770;9.154;2022-08-21T01:25:18;20.80;98.00
2024;DHT22;1016;48.770;9.154;2022-08-21T01:27:47;20.70;97.90
2024;DHT22;1016;48.770;9.154;2022-08-21T01:30:17;20.70;98.20
2024;DHT22;1016;48.770;9.154;2022-08-21T01:32:43;20.70;98.30
2024;DHT22;1016;48.770;9.154;2022-08-21T01:35:10;20.70;98.40
2024;DHT22;1016;48.770;9.154;2022-08-21T01:37:36;20.70;98.50
2024;DHT22;1016;48.770;9.154;2022-08-21T01:40:04;20.60;98.90
2024;DHT22;1016;48.770;9.154;2022-08-21T01:42:30;20.60;99.00
2024;DHT22;1016;48.770;9.154;2022-08-21T01:44:55;20.60;98.80
2024;DHT22;1016;48.770;9.154;2022-08-21T01:47:22;20.60;98.90
2024;DHT22;1016;48.770;9.154;2022-08-21T01:49:48;20.50;99.00
2024;DHT22;1016;48.770;9.154;2022-08-21T01:52:13;20.50;99.10
2024;DHT22;1016;48.770;9.154;2022-08-21T01:54:39;20.50;99.30
2024;DHT22;1016;48.770;9.154;2022-08-21T01:57:05;20.50;99.40
2024;DHT22;1016;48.770;9.154;2022-08-21T01:59:32;20.50;99.50
2024;DHT22;1016;48.770;9.154;2022-08-21T02:01:58;20.50;99.50
2024;DHT22;1016;48.770;9.154;2022-08-21T02:04:24;20.50;99.50
2024;DHT22;1016;48.770;9.154;2022-08-21T02:06:49;20.50;99.50
2024;DHT22;1016;48.770;9.154;2022-08-21T02:09:15;20.40;99.60
2024;DHT22;1016;48.770;9.154;2022-08-21T02:11:41;20.40;99.80
2024;DHT22;1016;48.770;9.154;2022-08-21T02:14:08;20.40;99.80
2024;DHT22;1016;48.770;9.154;2022-08-21T02:16:35;20.30;99.80
2024;DHT22;1016;48.770;9.154;2022-08-21T02:19:01;20.30;99.80
2024;DHT22;1016;48.770;9.154;2022-08-21T02:21:26;20.50;99.80
2024;DHT22;1016;48.770;9.154;2022-08-21T02:23:52;20.30;99.80
2024;DHT22;1016;48.770;9.154;2022-08-21T02:26:17;20.30;99.80
2024;DHT22;1016;48.770;9.154;2022-08-21T02:28:43;20.30;99.90
2024;DHT22;1016;48.770;9.154;2022-08-21T02:31:09;20.30;99.90
2024;DHT22;1016;48.770;9.154;2022-08-21T02:33:35;20.40;99.90
2024;DHT22;1016;48.770;9.154;2022-08-21T02:36:02;20.20;99.90
2024;DHT22;1016;48.770;9.154;2022-08-21T02:38:31;20.20;99.90
2024;DHT22;1016;48.770;9.154;2022-08-21T02:40:59;20.20;99.90
2024;DHT22;1016;48.770;9.154;2022-08-21T02:43:26;20.10;99.90
2024;DHT22;1016;48.770;9.154;2022-08-21T02:45:54;20.10;99.90
2024;DHT22;1016;48.770;9.154;2022-08-21T02:48:23;20.10;99.90
2024;DHT22;1016;48.770;9.154;2022-08-21T02:51:05;20.10;99.90
2024;DHT22;1016;48.770;9.154;2022-08-21T02:53:32;20.10;99.90
2024;DHT22;1016;48.770;9.154;2022-08-21T02:55:59;20.10;99.90
2024;DHT22;1016;48.770;9.154;2022-08-21T02:58:34;20.00;99.90
2024;DHT22;1016;48.770;9.154;2022-08-21T03:01:00;20.00;99.90
2024;DHT22;1016;48.770;9.154;2022-08-21T03:03:26;20.10;99.90
2024;DHT22;1016;48.770;9.154;2022-08-21T03:05:53;20.10;99.90
2024;DHT22;1016;48.770;9.154;2022-08-21T03:08:20;20.10;99.90
2024;DHT22;1016;48.770;9.154;2022-08-21T03:10:51;20.10;99.90
2024;DHT22;1016;48.770;9.154;2022-08-21T03:13:18;20.00;99.90
2024;DHT22;1016;48.770;9.154;2022-08-21T03:15:46;20.00;99.90
2024;DHT22;1016;48.770;9.154;2022-08-21T03:18:12;20.00;99.90
2024;DHT22;1016;48.770;9.154;2022-08-21T03:20:39;19.90;99.90
2024;DHT22;1016;48.770;9.154;2022-08-21T03:23:06;19.80;99.90
2024;DHT22;1016;48.770;9.154;2022-08-21T03:25:34;19.80;99.90
2024;DHT22;1016;48.770;9.154;2022-08-21T03:28:08;19.80;99.90
2024;DHT22;1016;48.770;9.154;2022-08-21T03:30:35;19.80;99.90
2024;DHT22;1016;48.770;9.154;2022-08-21T03:33:01;19.80;99.90
2024;DHT22;1016;48.770;9.154;2022-08-21T03:35:27;19.80;99.90
2024;DHT22;1016;48.770;9.154;2022-08-21T03:37:53;19.80;99.90
2024;DHT22;1016;48.770;9.154;2022-08-21T03:40:20;19.80;99.90
2024;DHT22;1016;48.770;9.154;2022-08-21T03:42:46;19.80;99.90
2024;DHT22;1016;48.770;9.154;2022-08-21T03:45:16;19.80;99.90
2024;DHT22;1016;48.770;9.154;2022-08-21T03:48:00;19.80;99.90
2024;DHT22;1016;48.770;9.154;2022-08-21T03:50:30;19.70;99.90
2024;DHT22;1016;48.770;9.154;2022-08-21T03:52:56;19.70;99.90
2024;DHT22;1016;48.770;9.154;2022-08-21T03:55:24;19.70;99.90
2024;DHT22;1016;48.770;9.154;2022-08-21T03:57:50;19.70;99.90
2024;DHT22;1016;48.770;9.154;2022-08-21T04:00:16;19.60;99.90
2024;DHT22;1016;48.770;9.154;2022-08-21T04:02:42;19.70;99.90
2024;DHT22;1016;48.770;9.154;2022-08-21T04:05:13;19.60;99.90
2024;DHT22;1016;48.770;9.154;2022-08-21T04:07:39;19.60;99.90
2024;DHT22;1016;48.770;9.154;2022-08-21T04:10:06;19.60;99.90
2024;DHT22;1016;48.770;9.154;2022-08-21T04:12:32;19.70;99.90
2024;DHT22;1016;48.770;9.154;2022-08-21T04:14:58;19.70;99.90
2024;DHT22;1016;48.770;9.154;2022-08-21T04:17:24;19.70;99.90
2024;DHT22;1016;48.770;9.154;2022-08-21T04:19:49;19.80;99.90
2024;DHT22;1016;48.770;9.154;2022-08-21T04:22:16;19.80;99.90
2024;DHT22;1016;48.770;9.154;2022-08-21T04:24:42;19.80;99.90
2024;DHT22;1016;48.770;9.154;2022-08-21T04:27:08;19.80;99.90
2024;DHT22;1016;48.770;9.154;2022-08-21T04:29:33;19.90;99.90
2024;DHT22;1016;48.770;9.154;2022-08-21T04:31:59;19.80;99.90
2024;DHT22;1016;48.770;9.154;2022-08-21T04:34:25;19.80;99.90
2024;DHT22;1016;48.770;9.154;2022-08-21T04:36:50;19.80;99.90
2024;DHT22;1016;48.770;9.154;2022-08-21T04:39:16;19.80;99.90
2024;DHT22;1016;48.770;9.154;2022-08-21T04:41:41;19.80;99.90
2024;DHT22;1016;48.770;9.154;2022-08-21T04:44:07;19.80;99.90
2024;DHT22;1016;48.770;9.154;2022-08-21T04:46:33;19.70;99.90
2024;DHT22;1016;48.770;9.154;2022-08-21T04:48:59;19.70;99.90
2024;DHT22;1016;48.770;9.154;2022-08-21T04:51:31;19.70;99.90
2024;DHT22;1016;48.770;9.154;2022-08-21T04:54:02;19.80;99.90
2024;DHT22;1016;48.770;9.154;2022-08-21T04:56:37;19.70;99.90
2024;DHT22;1016;48.770;9.154;2022-08-21T04:59:10;19.70;99.90
2024;DHT22;1016;48.770;9.154;2022-08-21T05:01:37;19.70;99.90
2024;DHT22;1016;48.770;9.154;2022-08-21T05:04:05;19.70;99.90
2024;DHT22;1016;48.770;9.154;2022-08-21T05:06:35;19.70;99.90
2024;DHT22;1016;48.770;9.154;2022-08-21T05:09:02;19.70;99.90
2024;DHT22;1016;48.770;9.154;2022-08-21T05:11:30;19.70;99.90
2024;DHT22;1016;48.770;9.154;2022-08-21T05:13:56;19.80;99.90
2024;DHT22;1016;48.770;9.154;2022-08-21T05:16:21;19.80;99.90
2024;DHT22;1016;48.770;9.154;2022-08-21T05:18:47;19.80;99.90
2024;DHT22;1016;48.770;9.154;2022-08-21T05:21:12;19.80;99.90
2024;DHT22;1016;48.770;9.154;2022-08-21T05:23:38;19.80;99.90
2024;DHT22;1016;48.770;9.154;2022-08-21T05:26:03;19.90;99.90
2024;DHT22;1016;48.770;9.154;2022-08-21T05:28:30;19.90;99.90
2024;DHT22;1016;48.770;9.154;2022-08-21T05:30:56;20.00;99.90
2024;DHT22;1016;48.770;9.154;2022-08-21T05:33:22;20.00;99.90
2024;DHT22;1016;48.770;9.154;2022-08-21T05:35:51;20.10;99.90
2024;DHT22;1016;48.770;9.154;2022-08-21T05:38:17;20.10;99.90
2024;DHT22;1016;48.770;9.154;2022-08-21T05:40:43;20.20;99.90
2024;DHT22;1016;48.770;9.154;2022-08-21T05:43:09;20.20;99.90
2024;DHT22;1016;48.770;9.154;2022-08-21T05:45:34;20.20;99.90
2024;DHT22;1016;48.770;9.154;2022-08-21T05:48:16;20.20;99.90
2024;DHT22;1016;48.770;9.154;2022-08-21T05:50:45;20.20;99.90
2024;DHT22;1016;48.770;9.154;2022-08-21T05:53:12;20.30;99.90
2024;DHT22;1016;48.770;9.154;2022-08-21T05:55:38;20.30;99.90
2024;DHT22;1016;48.770;9.154;2022-08-21T05:58:04;20.30;99.90
2024;DHT22;1016;48.770;9.154;2022-08-21T06:00:30;20.40;99.90
2024;DHT22;1016;48.770;9.154;2022-08-21T06:02:56;20.40;99.90
2024;DHT22;1016;48.770;9.154;2022-08-21T06:05:22;20.50;99.90
2024;DHT22;1016;48.770;9.154;2022-08-21T06:07:47;20.50;99.90
2024;DHT22;1016;48.770;9.154;2022-08-21T06:10:13;20.50;99.90
2024;DHT22;1016;48.770;9.154;2022-08-21T06:12:38;20.60;99.90
2024;DHT22;1016;48.770;9.154;2022-08-21T06:15:04;20.60;99.90
2024;DHT22;1016;48.770;9.154;2022-08-21T06:17:30;20.60;99.90
2024;DHT22;1016;48.770;9.154;2022-08-21T06:19:55;20.60;99.90
2024;DHT22;1016;48.770;9.154;2022-08-21T06:22:21;20.60;99.90
2024;DHT22;1016;48.770;9.154;2022-08-21T06:24:47;20.60;99.90
2024;DHT22;1016;48.770;9.154;2022-08-21T06:27:12;20.60;99.90
2024;DHT22;1016;48.770;9.154;2022-08-21T06:29:38;20.70;99.90
2024;DHT22;1016;48.770;9.154;2022-08-21T06:32:04;20.80;99.90
2024;DHT22;1016;48.770;9.154;2022-08-21T06:34:32;20.80;99.90
2024;DHT22;1016;48.770;9.154;2022-08-21T06:36:57;20.90;99.90
2024;DHT22;1016;48.770;9.154;2022-08-21T06:39:23;20.90;99.90
2024;DHT22;1016;48.770;9.154;2022-08-21T06:41:48;21.00;99.90
2024;DHT22;1016;48.770;9.154;2022-08-21T06:44:16;21.10;99.90
2024;DHT22;1016;48.770;9.154;2022-08-21T06:46:42;21.10;99.90
2024;DHT22;1016;48.770;9.154;2022-08-21T06:49:07;21.20;99.90
2024;DHT22;1016;48.770;9.154;2022-08-21T06:51:33;21.30;99.90
2024;DHT22;1016;48.770;9.154;2022-08-21T06:53:58;21.30;99.90
2024;DHT22;1016;48.770;9.154;2022-08-21T06:56:24;21.40;99.90
2024;DHT22;1016;48.770;9.154;2022-08-21T06:58:49;21.40;99.90
2024;DHT22;1016;48.770;9.154;2022-08-21T07:01:15;21.50;99.90
2024;DHT22;1016;48.770;9.154;2022-08-21T07:03:42;21.60;99.90
2024;DHT22;1016;48.770;9.154;2022-08-21T07:06:10;21.60;99.90
2024;DHT22;1016;48.770;9.154;2022-08-21T07:08:36;21.70;99.90
2024;DHT22;1016;48.770;9.154;2022-08-21T07:11:07;21.70;99.90
2024;DHT22;1016;48.770;9.154;2022-08-21T07:13:34;21.80;99.90
2024;DHT22;1016;48.770;9.154;2022-08-21T07:16:00;21.80;99.90
2024;DHT22;1016;48.770;9.154;2022-08-21T07:18:25;21.90;99.90
2024;DHT22;1016;48.770;9.154;2022-08-21T07:20:51;21.90;99.90
2024;DHT22;1016;48.770;9.154;2022-08-21T07:23:40;22.00;99.90
2024;DHT22;1016;48.770;9.154;2022-08-21T07:26:07;22.10;99.90
2024;DHT22;1016;48.770;9.154;2022-08-21T07:28:33;22.10;99.90
2024;DHT22;1016;48.770;9.154;2022-08-21T07:31:00;22.10;99.90
2024;DHT22;1016;48.770;9.154;2022-08-21T07:33:27;22.20;99.90
2024;DHT22;1016;48.770;9.154;2022-08-21T07:35:54;22.20;99.90
2024;DHT22;1016;48.770;9.154;2022-08-21T07:38:20;22.20;99.90
2024;DHT22;1016;48.770;9.154;2022-08-21T07:40:47;22.30;99.90
2024;DHT22;1016;48.770;9.154;2022-08-21T07:43:13;22.40;99.90
2024;DHT22;1016;48.770;9.154;2022-08-21T07:45:42;22.40;99.90
2024;DHT22;1016;48.770;9.154;2022-08-21T07:48:07;22.70;99.90
2024;DHT22;1016;48.770;9.154;2022-08-21T07:50:33;22.60;99.90
2024;DHT22;1016;48.770;9.154;2022-08-21T07:52:58;22.60;99.90
2024;DHT22;1016;48.770;9.154;2022-08-21T07:55:24;22.60;99.90
2024;DHT22;1016;48.770;9.154;2022-08-21T07:57:50;22.60;99.90
2024;DHT22;1016;48.770;9.154;2022-08-21T08:00:19;22.60;99.90
2024;DHT22;1016;48.770;9.154;2022-08-21T08:02:47;22.70;99.90
2024;DHT22;1016;48.770;9.154;2022-08-21T08:05:17;22.80;99.90
2024;DHT22;1016;48.770;9.154;2022-08-21T08:07:42;22.80;99.90
2024;DHT22;1016;48.770;9.154;2022-08-21T08:10:09;22.90;99.90
2024;DHT22;1016;48.770;9.154;2022-08-21T08:12:36;23.00;99.90
2024;DHT22;1016;48.770;9.154;2022-08-21T08:15:04;23.00;99.80
2024;DHT22;1016;48.770;9.154;2022-08-21T08:17:30;23.10;99.90
2024;DHT22;1016;48.770;9.154;2022-08-21T08:19:57;23.10;99.90
2024;DHT22;1016;48.770;9.154;2022-08-21T08:22:23;23.20;99.80
2024;DHT22;1016;48.770;9.154;2022-08-21T08:24:50;23.20;99.30
2024;DHT22;1016;48.770;9.154;2022-08-21T08:27:16;23.20;99.40
2024;DHT22;1016;48.770;9.154;2022-08-21T08:29:43;23.30;99.00
2024;DHT22;1016;48.770;9.154;2022-08-21T08:32:09;23.30;98.80
2024;DHT22;1016;48.770;9.154;2022-08-21T08:34:36;23.40;99.20
2024;DHT22;1016;48.770;9.154;2022-08-21T08:37:03;23.50;98.90
2024;DHT22;1016;48.770;9.154;2022-08-21T08:39:29;23.50;98.70
2024;DHT22;1016;48.770;9.154;2022-08-21T08:42:24;23.60;98.70
2024;DHT22;1016;48.770;9.154;2022-08-21T08:44:56;23.60;98.80
2024;DHT22;1016;48.770;9.154;2022-08-21T08:47:24;23.60;98.70
2024;DHT22;1016;48.770;9.154;2022-08-21T08:50:01;23.70;98.30
2024;DHT22;1016;48.770;9.154;2022-08-21T08:52:34;23.70;98.10
2024;DHT22;1016;48.770;9.154;2022-08-21T08:55:15;23.80;97.40
2024;DHT22;1016;48.770;9.154;2022-08-21T08:57:45;23.70;97.40
2024;DHT22;1016;48.770;9.154;2022-08-21T09:00:13;23.80;97.50
2024;DHT22;1016;48.770;9.154;2022-08-21T09:02:42;23.90;97.50
2024;DHT22;1016;48.770;9.154;2022-08-21T09:05:12;23.90;97.40
2024;DHT22;1016;48.770;9.154;2022-08-21T09:13:37;24.20;94.40
2024;DHT22;1016;48.770;9.154;2022-08-21T09:25:08;24.40;92.40
2024;DHT22;1016;48.770;9.154;2022-08-21T09:27:36;24.40;92.70
2024;DHT22;1016;48.770;9.154;2022-08-21T09:30:04;24.50;92.50
2024;DHT22;1016;48.770;9.154;2022-08-21T09:32:32;24.60;91.50
2024;DHT22;1016;48.770;9.154;2022-08-21T09:43:04;24.70;91.20
2024;DHT22;1016;48.770;9.154;2022-08-21T09:45:31;24.70;91.30
2024;DHT22;1016;48.770;9.154;2022-08-21T09:48:28;24.80;91.60
2024;DHT22;1016;48.770;9.154;2022-08-21T09:51:06;24.90;91.70
2024;DHT22;1016;48.770;9.154;2022-08-21T09:53:33;25.00;91.00
2024;DHT22;1016;48.770;9.154;2022-08-21T09:56:04;25.00;90.60
2024;DHT22;1016;48.770;9.154;2022-08-21T09:58:50;25.00;90.70
2024;DHT22;1016;48.770;9.154;2022-08-21T10:01:24;24.90;91.00
2024;DHT22;1016;48.770;9.154;2022-08-21T10:04:07;24.90;91.50
2024;DHT22;1016;48.770;9.154;2022-08-21T10:06:33;25.00;91.20
2024;DHT22;1016;48.770;9.154;2022-08-21T10:09:16;25.00;91.40
2024;DHT22;1016;48.770;9.154;2022-08-21T10:14:54;25.10;91.20
2024;DHT22;1016;48.770;9.154;2022-08-21T10:17:44;25.10;91.30
2024;DHT22;1016;48.770;9.154;2022-08-21T10:20:19;25.10;90.80
2024;DHT22;1016;48.770;9.154;2022-08-21T10:23:06;25.20;90.80
2024;DHT22;1016;48.770;9.154;2022-08-21T10:25:40;25.20;90.90
2024;DHT22;1016;48.770;9.154;2022-08-21T10:33:48;25.40;90.30
2024;DHT22;1016;48.770;9.154;2022-08-21T10:36:34;25.40;90.20
2024;DHT22;1016;48.770;9.154;2022-08-21T10:39:29;25.40;90.10
2024;DHT22;1016;48.770;9.154;2022-08-21T10:44:49;25.50;90.20
2024;DHT22;1016;48.770;9.154;2022-08-21T10:47:52;25.50;90.00
2024;DHT22;1016;48.770;9.154;2022-08-21T10:50:31;25.60;89.80
2024;DHT22;1016;48.770;9.154;2022-08-21T10:53:09;25.80;88.90
2024;DHT22;1016;48.770;9.154;2022-08-21T10:55:44;25.70;88.20
2024;DHT22;1016;48.770;9.154;2022-08-21T10:58:56;25.70;87.70
2024;DHT22;1016;48.770;9.154;2022-08-21T11:01:44;25.70;87.40
2024;DHT22;1016;48.770;9.154;2022-08-21T11:04:25;25.70;86.60
2024;DHT22;1016;48.770;9.154;2022-08-21T11:07:02;25.80;86.90
2024;DHT22;1016;48.770;9.154;2022-08-21T11:09:29;25.80;86.60
2024;DHT22;1016;48.770;9.154;2022-08-21T11:17:11;25.70;85.10
2024;DHT22;1016;48.770;9.154;2022-08-21T11:19:48;25.80;85.20
2024;DHT22;1016;48.770;9.154;2022-08-21T11:22:28;25.80;85.10
2024;DHT22;1016;48.770;9.154;2022-08-21T11:28:22;26.00;84.60
2024;DHT22;1016;48.770;9.154;2022-08-21T11:36:38;26.10;84.60
2024;DHT22;1016;48.770;9.154;2022-08-21T11:42:16;26.10;84.00
2024;DHT22;1016;48.770;9.154;2022-08-21T11:47:52;26.30;83.20
2024;DHT22;1016;48.770;9.154;2022-08-21T11:50:25;26.30;81.50
2024;DHT22;1016;48.770;9.154;2022-08-21T11:53:12;26.30;82.50
2024;DHT22;1016;48.770;9.154;2022-08-21T11:55:47;26.40;82.00
2024;DHT22;1016;48.770;9.154;2022-08-21T11:58:27;26.50;81.40
2024;DHT22;1016;48.770;9.154;2022-08-21T12:00:57;26.50;82.00
2024;DHT22;1016;48.770;9.154;2022-08-21T12:03:32;26.50;81.40
2024;DHT22;1016;48.770;9.154;2022-08-21T12:06:08;26.60;81.70
2024;DHT22;1016;48.770;9.154;2022-08-21T12:14:00;26.80;79.60
2024;DHT22;1016;48.770;9.154;2022-08-21T12:16:38;26.80;79.90
2024;DHT22;1016;48.770;9.154;2022-08-21T12:19:11;26.90;78.70
2024;DHT22;1016;48.770;9.154;2022-08-21T12:24:45;26.80;77.90
2024;DHT22;1016;48.770;9.154;2022-08-21T12:27:17;26.90;77.20
2024;DHT22;1016;48.770;9.154;2022-08-21T12:30:06;26.90;76.90
2024;DHT22;1016;48.770;9.154;2022-08-21T12:32:46;26.80;77.70
2024;DHT22;1016;48.770;9.154;2022-08-21T12:35:23;26.90;77.60
2024;DHT22;1016;48.770;9.154;2022-08-21T12:38:26;27.00;77.70
2024;DHT22;1016;48.770;9.154;2022-08-21T12:43:38;27.00;77.20
2024;DHT22;1016;48.770;9.154;2022-08-21T12:46:06;27.00;76.20
2024;DHT22;1016;48.770;9.154;2022-08-21T12:48:54;27.00;75.70
2024;DHT22;1016;48.770;9.154;2022-08-21T12:51:24;27.00;76.10
2024;DHT22;1016;48.770;9.154;2022-08-21T12:53:54;27.00;76.10
2024;DHT22;1016;48.770;9.154;2022-08-21T12:56:29;27.10;75.10
2024;DHT22;1016;48.770;9.154;2022-08-21T12:58:57;27.20;74.70
2024;DHT22;1016;48.770;9.154;2022-08-21T13:01:30;27.10;74.60
2024;DHT22;1016;48.770;9.154;2022-08-21T13:03:59;27.20;74.40
2024;DHT22;1016;48.770;9.154;2022-08-21T13:06:29;27.10;74.50
2024;DHT22;1016;48.770;9.154;2022-08-21T13:09:03;27.10;74.50
2024;DHT22;1016;48.770;9.154;2022-08-21T13:11:29;27.10;73.80
2024;DHT22;1016;48.770;9.154;2022-08-21T13:13:56;27.20;74.00
2024;DHT22;1016;48.770;9.154;2022-08-21T13:16:26;27.20;73.90
2024;DHT22;1016;48.770;9.154;2022-08-21T13:19:05;27.30;73.90
2024;DHT22;1016;48.770;9.154;2022-08-21T13:26:42;28.10;72.70
2024;DHT22;1016;48.770;9.154;2022-08-21T13:29:17;28.00;72.50
2024;DHT22;1016;48.770;9.154;2022-08-21T13:31:52;27.80;72.30
2024;DHT22;1016;48.770;9.154;2022-08-21T13:34:21;27.60;73.70
2024;DHT22;1016;48.770;9.154;2022-08-21T13:36:52;27.40;72.80
2024;DHT22;1016;48.770;9.154;2022-08-21T13:39:20;27.30;72.60
2024;DHT22;1016;48.770;9.154;2022-08-21T13:41:49;27.20;73.10
2024;DHT22;1016;48.770;9.154;2022-08-21T13:46:48;27.20;72.60
2024;DHT22;1016;48.770;9.154;2022-08-21T13:49:17;27.30;72.80
2024;DHT22;1016;48.770;9.154;2022-08-21T13:51:44;27.20;72.50
2024;DHT22;1016;48.770;9.154;2022-08-21T13:54:24;27.30;72.50
2024;DHT22;1016;48.770;9.154;2022-08-21T13:56:51;27.70;71.90
2024;DHT22;1016;48.770;9.154;2022-08-21T13:59:28;27.70;71.50
2024;DHT22;1016;48.770;9.154;2022-08-21T14:02:08;27.90;71.80
2024;DHT22;1016;48.770;9.154;2022-08-21T14:04:38;27.90;71.60
2024;DHT22;1016;48.770;9.154;2022-08-21T14:07:20;28.00;70.90
2024;DHT22;1016;48.770;9.154;2022-08-21T14:09:46;28.00;69.90
2024;DHT22;1016;48.770;9.154;2022-08-21T14:12:35;28.00;69.90
2024;DHT22;1016;48.770;9.154;2022-08-21T14:15:06;32.20;68.40
2024;DHT22;1016;48.770;9.154;2022-08-21T14:17:35;35.00;64.60
2024;DHT22;1016;48.770;9.154;2022-08-21T14:20:05;37.90;58.30
2024;DHT22;1016;48.770;9.154;2022-08-21T14:35:13;45.40;37.30
2024;DHT22;1016;48.770;9.154;2022-08-21T14:37:43;45.90;36.60
2024;DHT22;1016;48.770;9.154;2022-08-21T14:40:10;46.40;35.70
2024;DHT22;1016;48.770;9.154;2022-08-21T14:42:36;45.90;34.20
2024;DHT22;1016;48.770;9.154;2022-08-21T14:47:33;46.60;32.70
2024;DHT22;1016;48.770;9.154;2022-08-21T14:49:58;45.20;32.30
2024;DHT22;1016;48.770;9.154;2022-08-21T14:52:24;43.20;32.70
2024;DHT22;1016;48.770;9.154;2022-08-21T14:57:15;39.40;33.90
2024;DHT22;1016;48.770;9.154;2022-08-21T14:59:41;38.00;35.50
2024;DHT22;1016;48.770;9.154;2022-08-21T15:02:08;37.20;36.70
2024;DHT22;1016;48.770;9.154;2022-08-21T15:04:34;37.00;37.00
2024;DHT22;1016;48.770;9.154;2022-08-21T15:07:00;36.50;37.50
2024;DHT22;1016;48.770;9.154;2022-08-21T15:09:26;36.10;37.80
2024;DHT22;1016;48.770;9.154;2022-08-21T15:11:53;35.90;38.30
2024;DHT22;1016;48.770;9.154;2022-08-21T15:14:22;35.50;38.50
2024;DHT22;1016;48.770;9.154;2022-08-21T15:16:48;35.10;38.60
2024;DHT22;1016;48.770;9.154;2022-08-21T15:19:14;34.60;39.30
2024;DHT22;1016;48.770;9.154;2022-08-21T15:21:40;34.00;40.10
2024;DHT22;1016;48.770;9.154;2022-08-21T15:24:05;33.50;40.00
2024;DHT22;1016;48.770;9.154;2022-08-21T15:26:31;33.00;40.50
2024;DHT22;1016;48.770;9.154;2022-08-21T15:28:59;32.70;40.90
2024;DHT22;1016;48.770;9.154;2022-08-21T15:31:24;32.30;41.40
2024;DHT22;1016;48.770;9.154;2022-08-21T15:33:50;32.00;41.90
2024;DHT22;1016;48.770;9.154;2022-08-21T15:36:16;31.90;42.30
2024;DHT22;1016;48.770;9.154;2022-08-21T15:38:43;32.00;42.20
2024;DHT22;1016;48.770;9.154;2022-08-21T15:41:09;31.70;42.20
2024;DHT22;1016;48.770;9.154;2022-08-21T15:43:43;31.40;42.20
2024;DHT22;1016;48.770;9.154;2022-08-21T15:46:12;31.20;42.60
2024;DHT22;1016;48.770;9.154;2022-08-21T15:48:38;30.90;42.90
2024;DHT22;1016;48.770;9.154;2022-08-21T15:51:04;30.60;43.10
2024;DHT22;1016;48.770;9.154;2022-08-21T15:53:30;30.40;43.30
2024;DHT22;1016;48.770;9.154;2022-08-21T15:55:58;30.20;43.70
2024;DHT22;1016;48.770;9.154;2022-08-21T15:58:25;30.10;43.90
2024;DHT22;1016;48.770;9.154;2022-08-21T16:00:51;29.80;44.10
2024;DHT22;1016;48.770;9.154;2022-08-21T16:03:17;29.60;44.40
2024;DHT22;1016;48.770;9.154;2022-08-21T16:05:46;29.50;44.50
2024;DHT22;1016;48.770;9.154;2022-08-21T16:08:14;29.40;44.80
2024;DHT22;1016;48.770;9.154;2022-08-21T16:10:40;29.30;45.00
2024;DHT22;1016;48.770;9.154;2022-08-21T16:13:28;29.30;45.30
2024;DHT22;1016;48.770;9.154;2022-08-21T16:15:54;29.20;45.40
2024;DHT22;1016;48.770;9.154;2022-08-21T16:18:21;29.20;45.50
2024;DHT22;1016;48.770;9.154;2022-08-21T16:20:48;29.20;45.50
2024;DHT22;1016;48.770;9.154;2022-08-21T16:23:14;29.10;45.40
2024;DHT22;1016;48.770;9.154;2022-08-21T16:25:40;29.00;45.50
2024;DHT22;1016;48.770;9.154;2022-08-21T16:28:08;29.00;46.00
2024;DHT22;1016;48.770;9.154;2022-08-21T16:30:35;28.90;45.80
2024;DHT22;1016;48.770;9.154;2022-08-21T16:33:02;28.90;45.80
2024;DHT22;1016;48.770;9.154;2022-08-21T16:35:28;28.90;46.00
2024;DHT22;1016;48.770;9.154;2022-08-21T16:37:54;28.90;46.10
2024;DHT22;1016;48.770;9.154;2022-08-21T16:40:20;28.70;46.00
2024;DHT22;1016;48.770;9.154;2022-08-21T16:42:51;28.70;45.90
2024;DHT22;1016;48.770;9.154;2022-08-21T16:47:45;28.60;45.70
2024;DHT22;1016;48.770;9.154;2022-08-21T16:50:16;28.50;46.20
2024;DHT22;1016;48.770;9.154;2022-08-21T16:52:43;28.50;46.10
2024;DHT22;1016;48.770;9.154;2022-08-21T16:55:09;28.40;46.40
2024;DHT22;1016;48.770;9.154;2022-08-21T16:57:35;28.40;46.20
2024;DHT22;1016;48.770;9.154;2022-08-21T17:00:02;28.30;46.20
2024;DHT22;1016;48.770;9.154;2022-08-21T17:02:33;28.20;46.30
2024;DHT22;1016;48.770;9.154;2022-08-21T17:04:59;28.10;47.00
2024;DHT22;1016;48.770;9.154;2022-08-21T17:07:27;28.10;47.10
2024;DHT22;1016;48.770;9.154;2022-08-21T17:09:53;28.00;47.40
2024;DHT22;1016;48.770;9.154;2022-08-21T17:12:19;28.00;47.20
2024;DHT22;1016;48.770;9.154;2022-08-21T17:14:45;27.90;47.60
2024;DHT22;1016;48.770;9.154;2022-08-21T17:17:11;27.80;48.20
2024;DHT22;1016;48.770;9.154;2022-08-21T17:19:37;27.80;48.30
2024;DHT22;1016;48.770;9.154;2022-08-21T17:22:03;27.80;47.70
2024;DHT22;1016;48.770;9.154;2022-08-21T17:24:29;27.70;48.10
2024;DHT22;1016;48.770;9.154;2022-08-21T17:26:54;27.60;48.30
2024;DHT22;1016;48.770;9.154;2022-08-21T17:29:25;27.60;48.50
2024;DHT22;1016;48.770;9.154;2022-08-21T17:31:52;27.60;48.50
2024;DHT22;1016;48.770;9.154;2022-08-21T17:34:17;27.50;48.70
2024;DHT22;1016;48.770;9.154;2022-08-21T17:36:43;27.50;48.60
2024;DHT22;1016;48.770;9.154;2022-08-21T17:39:08;27.40;48.50
2024;DHT22;1016;48.770;9.154;2022-08-21T17:41:35;27.40;48.80
2024;DHT22;1016;48.770;9.154;2022-08-21T17:44:04;27.30;49.10
2024;DHT22;1016;48.770;9.154;2022-08-21T17:46:31;27.30;49.70
2024;DHT22;1016;48.770;9.154;2022-08-21T17:48:57;27.30;49.00